createdAt,value
2019-03-24T00:00:53.794Z,76.42
2019-03-24T00:01:53.782Z,76.58
2019-03-24T00:02:53.753Z,77.10
2019-03-24T00:03:53.741Z,77.10
2019-03-24T00:04:53.740Z,77.10
2019-03-24T00:05:53.729Z,77.00
2019-03-24T00:06:53.736Z,77.00
2019-03-24T00:07:53.697Z,76.72
2019-03-24T00:08:53.687Z,77.10
2019-03-24T00:09:53.674Z,76.79
2019-03-24T00:10:53.662Z,76.93
2019-03-24T00:11:53.658Z,76.82
2019-03-24T00:12:53.645Z,77.10
2019-03-24T00:13:53.644Z,76.38
2019-03-24T00:14:53.617Z,76.48
2019-03-24T00:15:53.631Z,76.79
2019-03-24T00:16:53.666Z,76.82
2019-03-24T00:17:53.592Z,76.89
2019-03-24T00:18:53.590Z,77.00
2019-03-24T00:19:53.562Z,77.55
2019-03-24T00:20:53.550Z,77.65
2019-03-24T00:21:53.550Z,77.44
2019-03-24T00:22:53.533Z,77.44
2019-03-24T00:23:53.518Z,77.23
2019-03-24T00:24:53.528Z,77.13
2019-03-24T00:25:53.497Z,77.13
2019-03-24T00:26:53.499Z,77.13
2019-03-24T00:27:53.496Z,77.23
2019-03-24T00:28:53.460Z,77.13
2019-03-24T00:29:53.450Z,77.03
2019-03-24T00:30:53.443Z,77.44
2019-03-24T00:31:53.426Z,77.23
2019-03-24T00:32:53.426Z,77.34
2019-03-24T00:33:53.406Z,77.34
2019-03-24T00:34:53.392Z,78.16
2019-03-24T00:35:53.379Z,78.06
2019-03-24T00:36:53.409Z,77.95
2019-03-24T00:37:53.423Z,77.95
2019-03-24T00:38:53.430Z,77.65
2019-03-24T00:39:53.340Z,77.85
2019-03-24T00:40:53.345Z,78.06
2019-03-24T00:41:53.317Z,77.85
2019-03-24T00:42:53.330Z,77.95
2019-03-24T00:43:53.293Z,77.75
2019-03-24T00:44:53.320Z,77.65
2019-03-24T00:45:53.280Z,78.06
2019-03-24T00:46:53.264Z,77.85
2019-03-24T00:47:53.260Z,77.85
2019-03-24T00:48:53.233Z,78.16
2019-03-24T00:49:53.249Z,78.06
2019-03-24T00:50:53.217Z,78.06
2019-03-24T00:51:53.202Z,78.16
2019-03-24T00:52:53.203Z,78.61
2019-03-24T00:53:53.222Z,78.27
2019-03-24T00:54:53.201Z,78.36
2019-03-24T00:55:53.159Z,78.27
2019-03-24T00:56:53.151Z,78.27
2019-03-24T00:57:53.222Z,78.57
2019-03-24T00:58:53.136Z,78.36
2019-03-24T00:59:53.139Z,78.36
2019-03-24T01:00:53.127Z,78.61
2019-03-24T01:01:53.091Z,78.67
2019-03-24T01:02:53.075Z,78.40
2019-03-24T01:03:53.069Z,78.61
2019-03-24T01:04:53.105Z,79.02
2019-03-24T01:05:53.048Z,79.53
2019-03-24T01:06:53.029Z,79.43
2019-03-24T01:07:53.019Z,79.74
2019-03-24T01:08:53.023Z,79.26
2019-03-24T01:09:52.998Z,79.33
2019-03-24T01:10:53.035Z,79.33
2019-03-24T01:11:52.998Z,79.43
2019-03-24T01:12:52.966Z,79.53
2019-03-24T01:13:52.959Z,79.33
2019-03-24T01:14:52.946Z,79.33
2019-03-24T01:15:52.963Z,79.22
2019-03-24T01:16:52.939Z,79.05
2019-03-24T01:17:52.906Z,79.36
2019-03-24T01:18:52.902Z,79.43
2019-03-24T01:19:52.883Z,79.16
2019-03-24T01:20:52.871Z,79.26
2019-03-24T01:21:52.876Z,79.57
2019-03-24T01:22:52.863Z,79.26
2019-03-24T01:23:52.859Z,79.47
2019-03-24T01:24:52.830Z,79.26
2019-03-24T01:25:52.818Z,78.96
2019-03-24T01:26:52.820Z,79.05
2019-03-24T01:27:52.837Z,79.05
2019-03-24T01:28:52.820Z,79.36
2019-03-24T01:29:52.770Z,79.36
2019-03-24T01:30:52.761Z,79.47
2019-03-24T01:31:52.748Z,79.36
2019-03-24T01:32:52.742Z,79.47
2019-03-24T01:33:52.770Z,79.67
2019-03-24T01:34:52.746Z,79.67
2019-03-24T01:35:52.705Z,79.47
2019-03-24T01:36:52.693Z,79.77
2019-03-24T01:37:52.682Z,79.57
2019-03-24T01:38:52.687Z,79.88
2019-03-24T01:39:52.679Z,80.08
2019-03-24T01:40:52.647Z,79.67
2019-03-24T01:41:52.636Z,79.77
2019-03-24T01:42:52.652Z,79.88
2019-03-24T01:43:52.624Z,79.88
2019-03-24T01:44:52.652Z,79.98
2019-03-24T01:45:58.487Z,79.67
2019-03-24T01:46:53.585Z,79.71
2019-03-24T01:47:52.570Z,79.77
2019-03-24T01:48:52.578Z,79.91
2019-03-24T01:49:52.556Z,79.98
2019-03-24T01:50:52.551Z,80.43
2019-03-24T01:51:52.530Z,80.43
2019-03-24T01:52:52.513Z,80.02
2019-03-24T01:53:52.502Z,80.43
2019-03-24T01:54:52.500Z,80.53
2019-03-24T01:55:52.488Z,80.39
2019-03-24T01:56:52.488Z,80.02
2019-03-24T01:57:52.549Z,80.33
2019-03-24T01:58:52.494Z,80.33
2019-03-24T01:59:52.446Z,80.43
2019-03-24T02:00:52.429Z,80.29
2019-03-24T02:01:52.422Z,80.12
2019-03-24T02:02:52.411Z,80.33
2019-03-24T02:03:52.390Z,80.43
2019-03-24T02:04:52.394Z,80.94
2019-03-24T02:05:52.369Z,80.63
2019-03-24T02:06:52.361Z,81.05
2019-03-24T02:07:52.355Z,80.94
2019-03-24T02:08:52.346Z,80.84
2019-03-24T02:09:52.330Z,80.84
2019-03-24T02:10:52.314Z,81.25
2019-03-24T02:11:52.308Z,81.25
2019-03-24T02:12:52.292Z,80.94
2019-03-24T02:13:52.290Z,81.35
2019-03-24T02:14:52.284Z,80.84
2019-03-24T02:15:52.358Z,81.35
2019-03-24T02:16:52.243Z,81.25
2019-03-24T02:17:52.242Z,81.35
2019-03-24T02:18:52.227Z,81.56
2019-03-24T02:19:52.219Z,81.49
2019-03-24T02:20:52.203Z,81.60
2019-03-24T02:21:52.187Z,81.60
2019-03-24T02:22:52.179Z,81.81
2019-03-24T02:23:52.182Z,81.81
2019-03-24T02:24:52.170Z,81.39
2019-03-24T02:25:52.137Z,81.70
2019-03-24T02:26:52.125Z,81.81
2019-03-24T02:27:52.117Z,81.60
2019-03-24T02:28:52.111Z,81.70
2019-03-24T02:29:52.144Z,81.70
2019-03-24T02:30:52.111Z,81.60
2019-03-24T02:31:52.074Z,81.81
2019-03-24T02:32:52.065Z,81.60
2019-03-24T02:33:52.132Z,81.60
2019-03-24T02:34:52.040Z,81.70
2019-03-24T02:35:52.050Z,81.19
2019-03-24T02:36:52.029Z,81.19
2019-03-24T02:37:52.008Z,82.01
2019-03-24T02:38:52.013Z,81.60
2019-03-24T02:39:51.990Z,81.39
2019-03-24T02:40:51.985Z,81.49
2019-03-24T02:41:51.965Z,81.60
2019-03-24T02:42:51.955Z,82.01
2019-03-24T02:43:51.942Z,81.70
2019-03-24T02:44:51.931Z,81.70
2019-03-24T02:45:51.922Z,81.70
2019-03-24T02:46:51.915Z,81.91
2019-03-24T02:47:51.893Z,81.49
2019-03-24T02:48:51.876Z,82.32
2019-03-24T02:49:51.900Z,82.21
2019-03-24T02:50:51.881Z,81.91
2019-03-24T02:51:51.844Z,82.01
2019-03-24T02:52:51.843Z,82.42
2019-03-24T02:53:51.821Z,82.32
2019-03-24T02:54:51.812Z,82.11
2019-03-24T02:55:51.813Z,81.81
2019-03-24T02:56:51.788Z,82.35
2019-03-24T02:57:51.788Z,82.46
2019-03-24T02:58:51.766Z,82.32
2019-03-24T02:59:51.762Z,82.25
2019-03-24T03:00:51.753Z,82.15
2019-03-24T03:01:51.731Z,82.46
2019-03-24T03:02:51.720Z,82.56
2019-03-24T03:03:51.758Z,82.35
2019-03-24T03:04:51.724Z,82.46
2019-03-24T03:05:51.743Z,82.56
2019-03-24T03:06:51.682Z,82.35
2019-03-24T03:07:51.663Z,82.35
2019-03-24T03:08:51.653Z,82.56
2019-03-24T03:09:51.661Z,82.35
2019-03-24T03:10:51.744Z,82.46
2019-03-24T03:11:51.643Z,82.56
2019-03-24T03:12:51.606Z,82.46
2019-03-24T03:13:51.596Z,82.35
2019-03-24T03:14:51.598Z,82.56
2019-03-24T03:15:51.609Z,82.25
2019-03-24T03:16:51.568Z,82.35
2019-03-24T03:17:51.557Z,82.35
2019-03-24T03:18:51.550Z,82.35
2019-03-24T03:19:53.708Z,82.35
2019-03-24T03:20:51.515Z,82.25
2019-03-24T03:21:51.509Z,82.70
2019-03-24T03:22:51.492Z,82.91
2019-03-24T03:23:51.497Z,82.81
2019-03-24T03:24:51.482Z,82.91
2019-03-24T03:25:51.486Z,83.12
2019-03-24T03:26:51.486Z,83.32
2019-03-24T03:27:51.440Z,83.12
2019-03-24T03:28:51.429Z,83.32
2019-03-24T03:29:51.416Z,83.22
2019-03-24T03:30:51.614Z,83.01
2019-03-24T03:31:51.412Z,83.42
2019-03-24T03:32:51.427Z,83.32
2019-03-24T03:33:51.373Z,84.08
2019-03-24T03:34:51.361Z,83.56
2019-03-24T03:35:51.354Z,83.67
2019-03-24T03:36:51.369Z,83.56
2019-03-24T03:37:51.452Z,83.67
2019-03-24T03:38:51.315Z,83.98
2019-03-24T03:39:57.057Z,83.77
2019-03-24T03:40:52.298Z,83.73
2019-03-24T03:41:51.296Z,83.67
2019-03-24T03:42:51.333Z,83.87
2019-03-24T03:43:51.269Z,83.47
2019-03-24T03:44:51.253Z,83.87
2019-03-24T03:45:51.243Z,83.98
2019-03-24T03:46:53.003Z,83.67
2019-03-24T03:47:51.224Z,84.19
2019-03-24T03:48:51.204Z,83.77
2019-03-24T03:49:51.190Z,83.98
2019-03-24T03:50:51.208Z,84.19
2019-03-24T03:51:51.171Z,84.49
2019-03-24T03:52:51.162Z,84.19
2019-03-24T03:53:51.181Z,84.08
2019-03-24T03:54:51.179Z,83.87
2019-03-24T03:55:51.135Z,84.33
2019-03-24T03:56:51.128Z,84.39
2019-03-24T03:57:51.104Z,84.39
2019-03-24T03:58:51.091Z,84.64
2019-03-24T03:59:51.082Z,84.70
2019-03-24T04:00:51.071Z,85.05
2019-03-24T04:01:51.053Z,84.84
2019-03-24T04:02:51.082Z,84.64
2019-03-24T04:03:51.036Z,84.84
2019-03-24T04:04:51.079Z,84.43
2019-03-24T04:05:51.033Z,84.84
2019-03-24T04:06:51.003Z,84.84
2019-03-24T04:07:50.999Z,84.53
2019-03-24T04:08:50.980Z,84.33
2019-03-24T04:09:50.972Z,84.64
2019-03-24T04:10:50.955Z,84.53
2019-03-24T04:11:50.998Z,84.74
2019-03-24T04:12:50.948Z,84.53
2019-03-24T04:13:50.940Z,84.84
2019-03-24T04:14:51.001Z,84.91
2019-03-24T04:15:50.949Z,84.74
2019-03-24T04:16:50.888Z,84.84
2019-03-24T04:17:50.911Z,84.53
2019-03-24T04:18:50.871Z,84.74
2019-03-24T04:19:50.868Z,84.33
2019-03-24T04:20:50.863Z,84.74
2019-03-24T04:21:50.837Z,84.53
2019-03-24T04:22:50.858Z,84.53
2019-03-24T04:23:50.818Z,84.64
2019-03-24T04:24:50.814Z,84.74
2019-03-24T04:25:50.821Z,84.43
2019-03-24T04:26:50.841Z,84.64
2019-03-24T04:27:50.791Z,84.64
2019-03-24T04:28:50.755Z,84.43
2019-03-24T04:29:50.746Z,84.64
2019-03-24T04:30:50.734Z,84.84
2019-03-24T04:31:50.738Z,84.74
2019-03-24T04:32:50.712Z,84.84
2019-03-24T04:33:50.706Z,84.84
2019-03-24T04:34:50.687Z,84.94
2019-03-24T04:35:50.678Z,85.30
2019-03-24T04:36:50.668Z,84.78
2019-03-24T04:37:50.675Z,84.94
2019-03-24T04:38:50.686Z,84.88
2019-03-24T04:39:50.660Z,85.30
2019-03-24T04:40:50.637Z,85.19
2019-03-24T04:41:50.608Z,85.09
2019-03-24T04:42:50.603Z,85.50
2019-03-24T04:43:50.613Z,85.39
2019-03-24T04:44:50.581Z,85.39
2019-03-24T04:45:50.564Z,85.39
2019-03-24T04:46:50.551Z,84.99
2019-03-24T04:47:50.568Z,85.50
2019-03-24T04:48:50.554Z,84.99
2019-03-24T04:49:50.524Z,85.09
2019-03-24T04:50:50.507Z,85.60
2019-03-24T04:51:50.542Z,85.19
2019-03-24T04:52:50.493Z,85.30
2019-03-24T04:53:50.498Z,85.50
2019-03-24T04:54:50.507Z,85.30
2019-03-24T04:55:50.482Z,85.19
2019-03-24T04:56:50.462Z,84.88
2019-03-24T04:57:50.436Z,85.09
2019-03-24T04:58:50.421Z,85.30
2019-03-24T04:59:50.429Z,84.78
2019-03-24T05:00:50.407Z,85.19
2019-03-24T05:01:50.493Z,84.78
2019-03-24T05:02:50.373Z,84.88
2019-03-24T05:03:50.374Z,85.09
2019-03-24T05:04:50.383Z,85.09
2019-03-24T05:05:50.359Z,85.09
2019-03-24T05:06:50.355Z,85.09
2019-03-24T05:07:50.319Z,85.19
2019-03-24T05:08:50.314Z,85.50
2019-03-24T05:09:50.325Z,85.30
2019-03-24T05:10:50.287Z,85.09
2019-03-24T05:11:50.351Z,85.50
2019-03-24T05:12:50.325Z,85.23
2019-03-24T05:13:50.250Z,85.19
2019-03-24T05:14:50.255Z,85.64
2019-03-24T05:15:50.231Z,85.33
2019-03-24T05:16:50.219Z,85.44
2019-03-24T05:17:50.231Z,85.30
2019-03-24T05:18:50.194Z,85.44
2019-03-24T05:19:50.203Z,85.85
2019-03-24T05:20:50.175Z,85.33
2019-03-24T05:21:50.169Z,85.33
2019-03-24T05:22:50.179Z,85.75
2019-03-24T05:23:50.151Z,85.33
2019-03-24T05:24:50.297Z,85.44
2019-03-24T05:25:50.116Z,85.33
2019-03-24T05:26:50.105Z,85.23
2019-03-24T05:27:50.123Z,85.13
2019-03-24T05:28:50.107Z,85.85
2019-03-24T05:29:50.071Z,85.33
2019-03-24T05:30:50.063Z,85.02
2019-03-24T05:31:50.059Z,85.13
2019-03-24T05:32:50.116Z,85.23
2019-03-24T05:33:50.037Z,85.44
2019-03-24T05:34:50.036Z,85.64
2019-03-24T05:35:50.008Z,85.64
2019-03-24T05:36:50.073Z,86.05
2019-03-24T05:37:50.000Z,86.47
2019-03-24T05:38:49.978Z,85.75
2019-03-24T05:39:49.963Z,86.16
2019-03-24T05:40:49.950Z,86.47
2019-03-24T05:41:49.936Z,86.05
2019-03-24T05:42:49.933Z,85.75
2019-03-24T05:43:49.912Z,85.44
2019-03-24T05:44:49.906Z,85.23
2019-03-24T05:45:49.922Z,85.23
2019-03-24T05:46:49.913Z,85.54
2019-03-24T05:47:49.869Z,86.36
2019-03-24T05:48:49.872Z,85.64
2019-03-24T05:49:49.850Z,85.71
2019-03-24T05:50:49.867Z,85.54
2019-03-24T05:51:49.876Z,85.39
2019-03-24T05:52:49.822Z,85.54
2019-03-24T05:53:49.821Z,85.13
2019-03-24T05:54:49.788Z,85.30
2019-03-24T05:55:49.801Z,84.99
2019-03-24T05:56:49.802Z,84.78
2019-03-24T05:57:49.766Z,84.36
2019-03-24T05:58:49.750Z,84.88
2019-03-24T05:59:49.751Z,84.47
2019-03-24T06:00:49.743Z,84.57
2019-03-24T06:01:49.738Z,84.99
2019-03-24T06:02:49.701Z,84.88
2019-03-24T06:03:49.757Z,84.78
2019-03-24T06:04:49.693Z,85.05
2019-03-24T06:05:49.929Z,84.53
2019-03-24T06:06:49.659Z,84.53
2019-03-24T06:07:49.670Z,84.33
2019-03-24T06:08:49.647Z,84.33
2019-03-24T06:09:49.672Z,84.12
2019-03-24T06:10:49.641Z,83.71
2019-03-24T06:11:49.621Z,83.71
2019-03-24T06:12:49.592Z,83.71
2019-03-24T06:13:49.607Z,83.50
2019-03-24T06:14:49.573Z,83.71
2019-03-24T06:15:49.566Z,83.91
2019-03-24T06:16:49.582Z,83.91
2019-03-24T06:17:49.536Z,83.91
2019-03-24T06:18:49.526Z,83.91
2019-03-24T06:19:49.510Z,84.08
2019-03-24T06:20:49.508Z,83.67
2019-03-24T06:21:49.502Z,83.56
2019-03-24T06:22:49.483Z,82.84
2019-03-24T06:23:49.471Z,83.36
2019-03-24T06:24:49.468Z,83.05
2019-03-24T06:25:49.451Z,83.15
2019-03-24T06:26:49.497Z,82.95
2019-03-24T06:27:49.425Z,82.95
2019-03-24T06:28:49.418Z,83.01
2019-03-24T06:29:49.398Z,82.29
2019-03-24T06:30:49.393Z,82.60
2019-03-24T06:31:49.411Z,82.81
2019-03-24T06:32:49.448Z,82.81
2019-03-24T06:33:49.355Z,82.60
2019-03-24T06:34:49.365Z,82.50
2019-03-24T06:35:49.342Z,82.50
2019-03-24T06:36:49.333Z,82.46
2019-03-24T06:37:49.310Z,82.19
2019-03-24T06:38:49.300Z,81.74
2019-03-24T06:39:49.295Z,82.05
2019-03-24T06:40:49.283Z,81.63
2019-03-24T06:41:49.275Z,81.53
2019-03-24T06:42:49.252Z,81.60
2019-03-24T06:43:49.241Z,81.29
2019-03-24T06:44:49.231Z,80.88
2019-03-24T06:45:49.224Z,80.57
2019-03-24T06:46:49.533Z,80.77
2019-03-24T06:47:57.594Z,80.88
2019-03-24T06:48:50.188Z,80.88
2019-03-24T06:49:49.201Z,80.16
2019-03-24T06:50:49.162Z,80.26
2019-03-24T06:51:49.166Z,80.16
2019-03-24T06:52:49.139Z,80.74
2019-03-24T06:53:49.129Z,79.91
2019-03-24T06:54:49.220Z,80.22
2019-03-24T06:55:49.133Z,79.81
2019-03-24T06:56:49.112Z,80.02
2019-03-24T06:57:49.086Z,79.50
2019-03-24T06:58:49.071Z,79.50
2019-03-24T06:59:49.059Z,79.09
2019-03-24T07:00:49.046Z,79.40
2019-03-24T07:01:49.035Z,79.09
2019-03-24T07:02:49.030Z,79.40
2019-03-24T07:03:49.016Z,79.50
2019-03-24T07:04:49.004Z,79.19
2019-03-24T07:05:48.999Z,79.26
2019-03-24T07:06:49.053Z,79.05
2019-03-24T07:07:48.995Z,79.26
2019-03-24T07:08:48.972Z,79.16
2019-03-24T07:09:48.965Z,79.16
2019-03-24T07:10:48.937Z,79.47
2019-03-24T07:11:48.926Z,79.16
2019-03-24T07:12:48.928Z,79.57
2019-03-24T07:13:48.899Z,78.75
2019-03-24T07:14:48.887Z,78.61
2019-03-24T07:15:48.876Z,78.61
2019-03-24T07:16:48.874Z,78.61
2019-03-24T07:17:48.865Z,78.61
2019-03-24T07:18:48.866Z,77.75
2019-03-24T07:19:48.836Z,77.75
2019-03-24T07:20:48.819Z,77.65
2019-03-24T07:21:48.809Z,77.75
2019-03-24T07:22:48.818Z,77.34
2019-03-24T07:23:48.786Z,77.34
2019-03-24T07:24:48.773Z,77.44
2019-03-24T07:25:48.778Z,77.34
2019-03-24T07:26:48.789Z,77.34
2019-03-24T07:27:48.756Z,77.23
2019-03-24T07:28:48.733Z,77.40
2019-03-24T07:29:48.720Z,77.40
2019-03-24T07:30:48.709Z,77.51
2019-03-24T07:31:48.694Z,77.10
2019-03-24T07:32:48.766Z,76.48
2019-03-24T07:33:48.688Z,76.14
2019-03-24T07:34:48.669Z,76.24
2019-03-24T07:35:48.658Z,76.14
2019-03-24T07:36:48.640Z,75.73
2019-03-24T07:37:48.648Z,75.28
2019-03-24T07:38:48.618Z,74.87
2019-03-24T07:39:48.664Z,74.77
2019-03-24T07:40:48.614Z,76.24
2019-03-24T07:41:48.591Z,75.83
2019-03-24T07:42:48.793Z,76.20
2019-03-24T07:43:48.571Z,75.28
2019-03-24T07:44:48.548Z,75.59
2019-03-24T07:45:48.571Z,74.87
2019-03-24T07:46:48.555Z,74.22
2019-03-24T07:47:49.182Z,74.26
2019-03-24T07:48:48.517Z,74.22
2019-03-24T07:49:48.495Z,74.19
2019-03-24T07:50:48.540Z,73.88
2019-03-24T07:51:48.476Z,73.13
2019-03-24T07:52:48.474Z,73.33
2019-03-24T07:53:48.465Z,72.89
2019-03-24T07:54:48.446Z,72.48
2019-03-24T07:55:48.423Z,71.53
2019-03-24T07:56:48.439Z,70.78
2019-03-24T07:57:48.411Z,69.18
2019-03-24T07:58:48.419Z,68.12
2019-03-24T07:59:48.399Z,68.12
2019-03-24T08:00:48.524Z,67.45
2019-03-24T08:01:48.363Z,67.24
2019-03-24T08:02:51.310Z,65.99
2019-03-24T08:03:48.353Z,66.27
2019-03-24T08:04:48.331Z,65.55
2019-03-24T08:05:48.315Z,65.75
2019-03-24T08:06:48.357Z,65.55
2019-03-24T08:07:48.317Z,65.08
2019-03-24T08:08:48.300Z,64.47
2019-03-24T08:09:48.301Z,64.06
2019-03-24T08:10:48.272Z,63.42
2019-03-24T08:11:48.248Z,63.29
2019-03-24T08:12:48.319Z,62.68
2019-03-24T08:13:53.658Z,62.37
2019-03-24T08:14:49.267Z,62.37
2019-03-24T08:15:48.210Z,62.27
2019-03-24T08:16:48.190Z,62.14
2019-03-24T08:17:48.188Z,62.71
2019-03-24T08:18:48.204Z,63.32
2019-03-24T08:19:48.156Z,63.22
2019-03-24T08:20:48.148Z,63.86
2019-03-24T08:21:48.142Z,64.06
2019-03-24T08:22:48.123Z,64.03
2019-03-24T08:23:48.138Z,63.80
2019-03-24T08:24:48.096Z,62.58
2019-03-24T08:25:48.091Z,62.45
2019-03-24T08:26:48.076Z,61.43
2019-03-24T08:27:48.076Z,60.89
2019-03-24T08:28:48.063Z,60.89
2019-03-24T08:29:48.055Z,60.86
2019-03-24T08:30:48.031Z,60.53
2019-03-24T08:31:48.088Z,60.36
2019-03-24T08:32:48.011Z,60.99
2019-03-24T08:33:48.125Z,60.99
2019-03-24T08:34:48.520Z,61.36
2019-03-24T08:35:47.973Z,61.66
2019-03-24T08:36:47.964Z,62.35
2019-03-24T08:37:47.956Z,61.30
2019-03-24T08:38:47.998Z,61.17
2019-03-24T08:39:47.963Z,60.25
2019-03-24T08:40:47.925Z,61.74
2019-03-24T08:41:47.915Z,61.46
2019-03-24T08:42:47.894Z,62.14
2019-03-24T08:43:47.887Z,61.91
2019-03-24T08:44:47.892Z,60.76
2019-03-24T08:45:47.891Z,59.82
2019-03-24T08:46:47.850Z,60.13
2019-03-24T08:47:47.883Z,61.21
2019-03-24T08:48:47.831Z,60.46
2019-03-24T08:49:47.862Z,61.20
2019-03-24T08:50:47.919Z,61.20
2019-03-24T08:51:47.797Z,61.20
2019-03-24T08:52:47.783Z,60.46
2019-03-24T08:53:47.779Z,60.22
2019-03-24T08:54:47.768Z,60.22
2019-03-24T08:55:47.774Z,59.48
2019-03-24T08:56:47.736Z,59.46
2019-03-24T08:57:47.737Z,58.85
2019-03-24T08:58:47.802Z,58.62
2019-03-24T08:59:47.708Z,57.28
2019-03-24T09:00:47.716Z,57.17
2019-03-24T09:01:47.718Z,57.35
2019-03-24T09:02:47.666Z,56.84
2019-03-24T09:03:47.655Z,56.74
2019-03-24T09:04:47.652Z,56.97
2019-03-24T09:05:47.635Z,57.78
2019-03-24T09:06:47.635Z,57.45
2019-03-24T09:07:47.610Z,57.35
2019-03-24T09:08:48.983Z,56.74
2019-03-24T09:09:47.625Z,57.48
2019-03-24T09:10:47.580Z,57.23
2019-03-24T09:11:47.567Z,57.23
2019-03-24T09:12:47.557Z,58.75
2019-03-24T09:13:47.569Z,58.92
2019-03-24T09:14:47.531Z,57.65
2019-03-24T09:15:47.524Z,56.74
2019-03-24T09:16:47.524Z,56.21
2019-03-24T09:17:47.626Z,54.66
2019-03-24T09:18:52.535Z,55.80
2019-03-24T09:19:48.470Z,54.89
2019-03-24T09:20:47.511Z,56.64
2019-03-24T09:21:47.556Z,57.30
2019-03-24T09:22:47.515Z,57.50
2019-03-24T09:23:47.561Z,57.40
2019-03-24T09:24:47.459Z,57.68
2019-03-24T09:25:47.407Z,57.58
2019-03-24T09:26:47.394Z,56.74
2019-03-24T09:27:47.396Z,56.31
2019-03-24T09:28:47.382Z,56.18
2019-03-24T09:29:47.365Z,55.77
2019-03-24T09:30:47.367Z,54.33
2019-03-24T09:31:47.348Z,54.64
2019-03-24T09:32:47.332Z,52.79
2019-03-24T09:33:47.320Z,53.17
2019-03-24T09:34:47.322Z,52.56
2019-03-24T09:35:47.299Z,52.79
2019-03-24T09:36:47.283Z,52.56
2019-03-24T09:37:47.271Z,52.76
2019-03-24T09:38:47.260Z,53.17
2019-03-24T09:39:47.257Z,53.05
2019-03-24T09:40:47.243Z,51.50
2019-03-24T09:41:47.226Z,51.10
2019-03-24T09:42:47.213Z,51.28
2019-03-24T09:43:47.203Z,50.98
2019-03-24T09:44:47.199Z,50.70
2019-03-24T09:45:47.200Z,51.10
2019-03-24T09:46:47.167Z,51.43
2019-03-24T09:47:47.165Z,50.70
2019-03-24T09:48:47.150Z,51.20
2019-03-24T09:49:47.134Z,51.07
2019-03-24T09:50:47.133Z,51.28
2019-03-24T09:51:47.113Z,50.24
2019-03-24T09:52:47.101Z,49.94
2019-03-24T09:53:47.092Z,49.74
2019-03-24T09:54:47.112Z,49.82
2019-03-24T09:55:47.071Z,49.01
2019-03-24T09:56:47.057Z,48.96
2019-03-24T09:57:48.859Z,48.25
2019-03-24T09:58:47.035Z,49.26
2019-03-24T09:59:47.020Z,49.24
2019-03-24T10:00:47.027Z,48.21
2019-03-24T10:01:47.007Z,50.07
2019-03-24T10:02:47.016Z,50.27
2019-03-24T10:03:46.983Z,50.07
2019-03-24T10:04:46.979Z,49.54
2019-03-24T10:05:46.984Z,49.21
2019-03-24T10:06:46.944Z,49.04
2019-03-24T10:07:46.994Z,50.35
2019-03-24T10:08:47.544Z,50.27
2019-03-24T10:09:46.909Z,49.76
2019-03-24T10:10:46.928Z,50.16
2019-03-24T10:11:49.039Z,50.75
2019-03-24T10:12:46.877Z,49.76
2019-03-24T10:13:46.862Z,50.24
2019-03-24T10:14:46.854Z,50.24
2019-03-24T10:15:46.850Z,50.27
2019-03-24T10:16:46.834Z,51.20
2019-03-24T10:17:46.835Z,51.10
2019-03-24T10:18:46.810Z,51.55
2019-03-24T10:19:46.794Z,52.14
2019-03-24T10:20:46.791Z,52.56
2019-03-24T10:21:46.786Z,53.17
2019-03-24T10:22:46.761Z,53.30
2019-03-24T10:23:46.754Z,53.47
2019-03-24T10:24:47.425Z,53.27
2019-03-24T10:25:46.750Z,52.94
2019-03-24T10:26:46.732Z,52.92
2019-03-24T10:27:46.713Z,51.50
2019-03-24T10:28:46.696Z,52.09
2019-03-24T10:29:46.701Z,51.68
2019-03-24T10:30:46.704Z,51.61
2019-03-24T10:31:46.716Z,51.68
2019-03-24T10:32:46.659Z,52.19
2019-03-24T10:33:46.661Z,52.19
2019-03-24T10:34:46.625Z,51.25
2019-03-24T10:35:46.616Z,51.07
2019-03-24T10:36:46.630Z,51.61
2019-03-24T10:37:46.594Z,51.50
2019-03-24T10:38:46.582Z,51.71
2019-03-24T10:39:46.586Z,52.11
2019-03-24T10:40:46.558Z,52.84
2019-03-24T10:41:46.565Z,53.14
2019-03-24T10:42:46.536Z,53.58
2019-03-24T10:43:46.522Z,53.25
2019-03-24T10:44:46.512Z,53.14
2019-03-24T10:45:46.504Z,52.92
2019-03-24T10:46:46.488Z,53.14
2019-03-24T10:47:46.482Z,52.94
2019-03-24T10:48:46.466Z,53.02
2019-03-24T10:49:46.460Z,52.61
2019-03-24T10:50:46.446Z,52.74
2019-03-24T10:51:46.434Z,52.84
2019-03-24T10:52:46.428Z,52.23
2019-03-24T10:53:46.411Z,52.14
2019-03-24T10:54:46.416Z,51.40
2019-03-24T10:55:46.387Z,51.07
2019-03-24T10:56:46.377Z,51.48
2019-03-24T10:57:46.375Z,50.75
2019-03-24T10:58:46.355Z,50.32
2019-03-24T10:59:46.344Z,50.45
2019-03-24T11:00:46.337Z,51.13
2019-03-24T11:01:46.322Z,49.99
2019-03-24T11:02:46.325Z,49.37
2019-03-24T11:03:46.298Z,49.04
2019-03-24T11:04:46.287Z,48.54
2019-03-24T11:05:46.277Z,47.94
2019-03-24T11:07:03.783Z,48.21
2019-03-24T11:08:19.671Z,48.29
2019-03-24T11:09:19.614Z,47.49
2019-03-24T11:10:19.576Z,47.49
2019-03-24T11:11:19.537Z,47.41
2019-03-24T11:12:19.510Z,49.19
2019-03-24T11:13:19.459Z,49.41
2019-03-24T11:14:19.422Z,49.90
2019-03-24T11:15:19.377Z,49.87
2019-03-24T11:16:19.337Z,48.96
2019-03-24T11:17:19.304Z,49.39
2019-03-24T11:18:19.246Z,49.90
2019-03-24T11:19:35.056Z,49.90
2019-03-24T11:21:34.447Z,49.16
2019-03-24T11:22:34.433Z,49.67
2019-03-24T11:23:34.398Z,49.77
2019-03-24T11:24:34.399Z,48.96
2019-03-24T11:25:34.399Z,49.90
2019-03-24T11:26:34.372Z,49.47
2019-03-24T11:27:34.360Z,49.37
2019-03-24T11:28:34.358Z,49.09
2019-03-24T11:29:34.332Z,50.22
2019-03-24T11:30:34.326Z,50.02
2019-03-24T11:31:34.312Z,50.22
2019-03-24T11:32:39.320Z,50.22
2019-03-24T11:33:34.300Z,49.57
2019-03-24T11:34:34.276Z,48.26
2019-03-24T11:35:34.271Z,48.44
2019-03-24T11:36:34.258Z,48.21
2019-03-24T11:37:34.258Z,47.89
2019-03-24T11:38:34.254Z,47.77
2019-03-24T11:39:34.229Z,47.06
2019-03-24T11:40:34.212Z,47.06
2019-03-24T11:41:34.205Z,46.41
2019-03-24T11:42:34.220Z,45.91
2019-03-24T11:43:39.232Z,45.21
2019-03-24T11:44:34.896Z,45.10
2019-03-24T11:45:34.162Z,45.63
2019-03-24T11:46:34.141Z,47.26
2019-03-24T11:47:34.151Z,47.31
2019-03-24T11:48:34.135Z,47.51
2019-03-24T11:49:34.120Z,47.61
2019-03-24T11:50:34.099Z,47.61
2019-03-24T11:51:34.083Z,48.11
2019-03-24T11:52:34.076Z,47.81
2019-03-24T11:53:34.061Z,47.99
2019-03-24T11:54:39.085Z,47.91
2019-03-24T11:55:34.058Z,48.14
2019-03-24T11:56:34.028Z,48.96
2019-03-24T11:57:34.014Z,49.29
2019-03-24T11:58:34.023Z,49.59
2019-03-24T11:59:34.005Z,49.39
2019-03-24T12:00:33.982Z,48.96
2019-03-24T12:01:38.173Z,48.84
2019-03-24T12:02:33.958Z,48.16
2019-03-24T12:03:33.955Z,49.16
2019-03-24T12:04:33.948Z,49.29
2019-03-24T12:05:38.959Z,49.39
2019-03-24T12:06:33.919Z,49.69
2019-03-24T12:07:33.900Z,49.72
2019-03-24T12:08:33.890Z,49.62
2019-03-24T12:09:33.901Z,49.29
2019-03-24T12:10:33.867Z,50.10
2019-03-24T12:11:33.856Z,49.39
2019-03-24T12:12:33.855Z,49.16
2019-03-24T12:13:33.837Z,48.24
2019-03-24T12:14:33.846Z,48.84
2019-03-24T12:15:33.811Z,48.14
2019-03-24T12:16:38.824Z,47.83
2019-03-24T12:17:33.788Z,48.41
2019-03-24T12:18:33.776Z,47.81
2019-03-24T12:19:33.767Z,47.69
2019-03-24T12:20:33.771Z,46.76
2019-03-24T12:21:33.745Z,46.98
2019-03-24T12:22:33.738Z,47.49
2019-03-24T12:23:33.721Z,47.61
2019-03-24T12:24:33.714Z,47.56
2019-03-24T12:25:33.711Z,46.73
2019-03-24T12:26:33.693Z,47.26
2019-03-24T12:27:38.697Z,46.54
2019-03-24T12:28:33.665Z,46.54
2019-03-24T12:29:33.662Z,45.81
2019-03-24T12:30:33.659Z,45.51
2019-03-24T12:31:33.647Z,45.39
2019-03-24T12:32:33.619Z,45.89
2019-03-24T12:33:33.630Z,45.51
2019-03-24T12:34:33.608Z,45.91
2019-03-24T12:35:33.603Z,46.01
2019-03-24T12:36:33.577Z,45.61
2019-03-24T12:37:33.564Z,45.61
2019-03-24T12:38:38.580Z,46.81
2019-03-24T12:39:33.543Z,46.44
2019-03-24T12:40:33.546Z,46.66
2019-03-24T12:41:33.522Z,47.39
2019-03-24T12:42:33.509Z,46.86
2019-03-24T12:43:33.496Z,46.84
2019-03-24T12:44:33.486Z,47.04
2019-03-24T12:45:33.825Z,46.54
2019-03-24T12:46:33.465Z,46.54
2019-03-24T12:47:33.459Z,46.64
2019-03-24T12:48:33.440Z,46.76
2019-03-24T12:49:38.470Z,46.68
2019-03-24T12:50:33.435Z,47.08
2019-03-24T12:51:33.435Z,47.28
2019-03-24T12:52:33.402Z,47.79
2019-03-24T12:53:33.386Z,48.34
2019-03-24T12:54:33.386Z,48.44